sensor_id;sensor_type;location;lat;lon;timestamp;pressure;altitude;pressure_sealevel;temperature;humidity
61113;BME280;47184;57.998;56.184;2023-05-19T00:02:11;100933.66;;;13.06;31.52
61113;BME280;47184;57.998;56.184;2023-05-19T00:04:37;100933.59;;;12.98;31.98
61113;BME280;47184;57.998;56.184;2023-05-19T00:07:05;100932.25;;;12.94;31.84
61113;BME280;47184;57.998;56.184;2023-05-19T00:09:35;100939.69;;;12.90;32.19
61113;BME280;47184;57.998;56.184;2023-05-19T00:12:01;100934.84;;;12.85;32.34
61113;BME280;47184;57.998;56.184;2023-05-19T00:14:27;100936.44;;;12.78;32.71
61113;BME280;47184;57.998;56.184;2023-05-19T00:16:54;100943.88;;;12.75;32.96
61113;BME280;47184;57.998;56.184;2023-05-19T00:19:23;100948.94;;;12.68;33.11
61113;BME280;47184;57.998;56.184;2023-05-19T00:21:49;100948.56;;;12.63;33.53
61113;BME280;47184;57.998;56.184;2023-05-19T00:24:15;100935.53;;;12.52;33.53
61113;BME280;47184;57.998;56.184;2023-05-19T00:26:41;100948.84;;;12.60;33.73
61113;BME280;47184;57.998;56.184;2023-05-19T00:29:07;100950.66;;;12.59;33.95
61113;BME280;47184;57.998;56.184;2023-05-19T00:31:33;100946.19;;;12.60;33.85
61113;BME280;47184;57.998;56.184;2023-05-19T00:34:00;100949.53;;;12.62;33.95
61113;BME280;47184;57.998;56.184;2023-05-19T00:36:26;100951.19;;;12.63;34.01
61113;BME280;47184;57.998;56.184;2023-05-19T00:38:52;100960.97;;;12.62;34.20
61113;BME280;47184;57.998;56.184;2023-05-19T00:41:18;100957.34;;;12.63;34.11
61113;BME280;47184;57.998;56.184;2023-05-19T00:43:45;100961.50;;;12.66;34.27
61113;BME280;47184;57.998;56.184;2023-05-19T00:46:11;100956.75;;;12.70;34.42
61113;BME280;47184;57.998;56.184;2023-05-19T00:48:37;100945.91;;;12.63;34.62
61113;BME280;47184;57.998;56.184;2023-05-19T00:51:04;100954.75;;;12.72;34.84
61113;BME280;47184;57.998;56.184;2023-05-19T00:53:33;100947.63;;;12.72;34.87
61113;BME280;47184;57.998;56.184;2023-05-19T00:56:00;100956.41;;;12.73;35.06
61113;BME280;47184;57.998;56.184;2023-05-19T00:58:27;100919.09;;;12.48;35.51
61113;BME280;47184;57.998;56.184;2023-05-19T01:00:58;100962.13;;;12.78;35.55
61113;BME280;47184;57.998;56.184;2023-05-19T01:03:33;100959.00;;;12.82;35.55
61113;BME280;47184;57.998;56.184;2023-05-19T01:06:00;100953.72;;;12.82;35.96
61113;BME280;47184;57.998;56.184;2023-05-19T01:08:34;100956.38;;;12.82;36.11
61113;BME280;47184;57.998;56.184;2023-05-19T01:11:00;100956.19;;;12.84;36.17
61113;BME280;47184;57.998;56.184;2023-05-19T01:13:27;100962.69;;;12.89;35.85
61113;BME280;47184;57.998;56.184;2023-05-19T01:15:58;100969.53;;;12.92;36.22
61113;BME280;47184;57.998;56.184;2023-05-19T01:27:09;100963.38;;;13.09;36.28
61113;BME280;47184;57.998;56.184;2023-05-19T01:32:30;100958.28;;;13.16;36.21
61113;BME280;47184;57.998;56.184;2023-05-19T01:34:58;100958.56;;;13.23;36.11
61113;BME280;47184;57.998;56.184;2023-05-19T01:37:26;100956.94;;;13.30;35.83
61113;BME280;47184;57.998;56.184;2023-05-19T01:39:53;100942.69;;;13.31;35.65
61113;BME280;47184;57.998;56.184;2023-05-19T01:42:21;100955.31;;;13.37;35.07
61113;BME280;47184;57.998;56.184;2023-05-19T01:44:48;100963.03;;;13.48;35.03
61113;BME280;47184;57.998;56.184;2023-05-19T01:47:14;100963.56;;;13.52;34.90
61113;BME280;47184;57.998;56.184;2023-05-19T01:49:41;100970.41;;;13.62;34.27
61113;BME280;47184;57.998;56.184;2023-05-19T01:52:07;100968.03;;;13.77;34.23
61113;BME280;47184;57.998;56.184;2023-05-19T01:54:33;100969.72;;;13.86;34.24
61113;BME280;47184;57.998;56.184;2023-05-19T01:57:27;100962.47;;;13.97;33.83
61113;BME280;47184;57.998;56.184;2023-05-19T02:00:07;100967.50;;;14.08;34.08
61113;BME280;47184;57.998;56.184;2023-05-19T02:03:08;100969.88;;;14.19;33.84
61113;BME280;47184;57.998;56.184;2023-05-19T02:05:39;100970.09;;;14.34;33.87
61113;BME280;47184;57.998;56.184;2023-05-19T02:08:32;100974.44;;;14.43;33.10
61113;BME280;47184;57.998;56.184;2023-05-19T02:11:10;100960.50;;;14.41;33.31
61113;BME280;47184;57.998;56.184;2023-05-19T02:13:43;100983.72;;;14.39;33.20
61113;BME280;47184;57.998;56.184;2023-05-19T02:16:10;100976.09;;;14.44;33.03
61113;BME280;47184;57.998;56.184;2023-05-19T02:18:39;100977.81;;;14.53;32.74
61113;BME280;47184;57.998;56.184;2023-05-19T02:21:10;100935.06;;;14.38;32.80
61113;BME280;47184;57.998;56.184;2023-05-19T02:23:41;100955.91;;;14.59;32.62
61113;BME280;47184;57.998;56.184;2023-05-19T02:26:07;100933.41;;;14.46;32.29
61113;BME280;47184;57.998;56.184;2023-05-19T02:28:34;100958.09;;;14.80;32.21
61113;BME280;47184;57.998;56.184;2023-05-19T02:31:01;100969.56;;;14.89;32.23
61113;BME280;47184;57.998;56.184;2023-05-19T02:33:29;100970.25;;;14.99;32.43
61113;BME280;47184;57.998;56.184;2023-05-19T02:35:56;100967.25;;;14.94;31.99
61113;BME280;47184;57.998;56.184;2023-05-19T02:38:22;100971.06;;;15.00;31.73
61113;BME280;47184;57.998;56.184;2023-05-19T02:40:51;100955.09;;;14.83;31.51
61113;BME280;47184;57.998;56.184;2023-05-19T02:43:18;100971.25;;;14.98;31.44
61113;BME280;47184;57.998;56.184;2023-05-19T02:45:44;100979.69;;;15.10;31.53
61113;BME280;47184;57.998;56.184;2023-05-19T02:48:10;100966.91;;;14.97;31.21
61113;BME280;47184;57.998;56.184;2023-05-19T02:50:36;100981.53;;;15.01;31.34
61113;BME280;47184;57.998;56.184;2023-05-19T02:53:03;100963.75;;;15.02;31.34
61113;BME280;47184;57.998;56.184;2023-05-19T02:55:29;100973.53;;;14.85;31.42
61113;BME280;47184;57.998;56.184;2023-05-19T02:57:55;100938.31;;;14.67;31.24
61113;BME280;47184;57.998;56.184;2023-05-19T03:00:21;100979.34;;;14.89;30.93
61113;BME280;47184;57.998;56.184;2023-05-19T03:02:47;100981.88;;;14.90;30.74
61113;BME280;47184;57.998;56.184;2023-05-19T03:05:14;100979.38;;;14.97;30.85
61113;BME280;47184;57.998;56.184;2023-05-19T03:07:40;100983.88;;;15.04;31.07
61113;BME280;47184;57.998;56.184;2023-05-19T03:10:06;100978.03;;;15.09;30.63
61113;BME280;47184;57.998;56.184;2023-05-19T03:12:33;100947.13;;;14.92;30.74
61113;BME280;47184;57.998;56.184;2023-05-19T03:14:59;100969.91;;;15.19;30.55
61113;BME280;47184;57.998;56.184;2023-05-19T03:17:25;100983.69;;;15.30;30.72
61113;BME280;47184;57.998;56.184;2023-05-19T03:19:53;100977.53;;;15.38;30.66
61113;BME280;47184;57.998;56.184;2023-05-19T03:22:19;100965.41;;;15.27;30.20
61113;BME280;47184;57.998;56.184;2023-05-19T03:24:46;100971.72;;;15.18;30.50
61113;BME280;47184;57.998;56.184;2023-05-19T03:27:14;100966.91;;;15.14;30.59
61113;BME280;47184;57.998;56.184;2023-05-19T03:29:41;100989.38;;;15.27;30.59
61113;BME280;47184;57.998;56.184;2023-05-19T03:32:07;100983.22;;;15.35;30.30
61113;BME280;47184;57.998;56.184;2023-05-19T03:34:33;100968.03;;;15.52;30.45
61113;BME280;47184;57.998;56.184;2023-05-19T03:37:00;100960.72;;;15.54;30.01
61113;BME280;47184;57.998;56.184;2023-05-19T03:39:26;100974.00;;;15.70;30.13
61113;BME280;47184;57.998;56.184;2023-05-19T03:41:52;100961.16;;;15.82;30.20
61113;BME280;47184;57.998;56.184;2023-05-19T03:44:18;100965.25;;;16.09;29.74
61113;BME280;47184;57.998;56.184;2023-05-19T03:46:45;100971.38;;;16.18;29.83
61113;BME280;47184;57.998;56.184;2023-05-19T03:49:11;100966.81;;;16.26;29.61
61113;BME280;47184;57.998;56.184;2023-05-19T03:51:56;100971.19;;;16.50;29.47
61113;BME280;47184;57.998;56.184;2023-05-19T03:54:30;100967.88;;;16.79;28.90
61113;BME280;47184;57.998;56.184;2023-05-19T03:56:57;100955.66;;;16.85;28.78
61113;BME280;47184;57.998;56.184;2023-05-19T03:59:23;100955.91;;;16.98;28.61
61113;BME280;47184;57.998;56.184;2023-05-19T04:01:49;100960.75;;;16.95;28.60
61113;BME280;47184;57.998;56.184;2023-05-19T04:04:16;100961.19;;;16.83;28.54
61113;BME280;47184;57.998;56.184;2023-05-19T04:06:44;100964.41;;;16.94;28.58
61113;BME280;47184;57.998;56.184;2023-05-19T04:09:11;100957.84;;;16.81;28.56
61113;BME280;47184;57.998;56.184;2023-05-19T04:11:39;100956.41;;;16.71;28.48
61113;BME280;47184;57.998;56.184;2023-05-19T04:14:05;100942.31;;;16.62;28.44
61113;BME280;47184;57.998;56.184;2023-05-19T04:16:31;100970.63;;;16.63;28.45
61113;BME280;47184;57.998;56.184;2023-05-19T04:18:58;100933.41;;;16.47;28.65
61113;BME280;47184;57.998;56.184;2023-05-19T04:21:24;100955.91;;;16.75;28.30
61113;BME280;47184;57.998;56.184;2023-05-19T04:23:50;100941.84;;;16.81;28.05
61113;BME280;47184;57.998;56.184;2023-05-19T04:26:16;100957.78;;;17.13;27.95
61113;BME280;47184;57.998;56.184;2023-05-19T04:28:43;100934.09;;;17.09;27.58
61113;BME280;47184;57.998;56.184;2023-05-19T04:31:10;100962.41;;;17.19;27.67
61113;BME280;47184;57.998;56.184;2023-05-19T04:33:38;100965.16;;;16.88;27.69
61113;BME280;47184;57.998;56.184;2023-05-19T04:36:05;100940.22;;;16.72;27.58
61113;BME280;47184;57.998;56.184;2023-05-19T04:38:34;100942.69;;;16.82;27.74
61113;BME280;47184;57.998;56.184;2023-05-19T04:41:05;100953.69;;;17.02;27.39
61113;BME280;47184;57.998;56.184;2023-05-19T04:43:35;100954.78;;;17.30;27.42
61113;BME280;47184;57.998;56.184;2023-05-19T04:46:10;100945.47;;;17.26;27.03
61113;BME280;47184;57.998;56.184;2023-05-19T04:48:38;100950.72;;;17.20;26.92
61113;BME280;47184;57.998;56.184;2023-05-19T04:51:07;100921.97;;;17.07;27.04
61113;BME280;47184;57.998;56.184;2023-05-19T04:53:33;100951.22;;;17.53;26.69
61113;BME280;47184;57.998;56.184;2023-05-19T04:56:00;100943.06;;;17.84;26.52
61113;BME280;47184;57.998;56.184;2023-05-19T04:58:26;100939.44;;;18.06;26.21
61113;BME280;47184;57.998;56.184;2023-05-19T05:00:53;100936.66;;;18.15;26.22
61113;BME280;47184;57.998;56.184;2023-05-19T05:03:26;100939.84;;;18.40;25.95
61113;BME280;47184;57.998;56.184;2023-05-19T05:05:52;100934.13;;;18.43;25.05
61113;BME280;47184;57.998;56.184;2023-05-19T05:08:19;100929.38;;;18.45;25.55
61113;BME280;47184;57.998;56.184;2023-05-19T05:10:52;100901.50;;;18.32;25.19
61113;BME280;47184;57.998;56.184;2023-05-19T05:13:22;100930.25;;;18.67;25.04
61113;BME280;47184;57.998;56.184;2023-05-19T05:15:49;100926.53;;;18.68;24.87
61113;BME280;47184;57.998;56.184;2023-05-19T05:18:17;100910.03;;;18.43;24.90
61113;BME280;47184;57.998;56.184;2023-05-19T05:20:45;100905.78;;;18.12;24.43
61113;BME280;47184;57.998;56.184;2023-05-19T05:23:12;100940.16;;;18.30;24.47
61113;BME280;47184;57.998;56.184;2023-05-19T05:25:42;100917.50;;;18.11;24.43
61113;BME280;47184;57.998;56.184;2023-05-19T05:28:08;100922.94;;;18.03;24.50
61113;BME280;47184;57.998;56.184;2023-05-19T05:30:36;100917.50;;;18.11;24.50
61113;BME280;47184;57.998;56.184;2023-05-19T05:33:03;100925.34;;;18.13;24.43
61113;BME280;47184;57.998;56.184;2023-05-19T05:35:37;100922.94;;;18.18;24.41
61113;BME280;47184;57.998;56.184;2023-05-19T05:38:05;100885.97;;;18.21;24.44
61113;BME280;47184;57.998;56.184;2023-05-19T05:40:31;100916.13;;;18.73;24.28
61113;BME280;47184;57.998;56.184;2023-05-19T05:42:57;100904.00;;;19.26;23.92
61113;BME280;47184;57.998;56.184;2023-05-19T05:45:26;100904.22;;;19.94;23.54
61113;BME280;47184;57.998;56.184;2023-05-19T05:47:57;100925.69;;;20.62;22.77
61113;BME280;47184;57.998;56.184;2023-05-19T05:50:23;100910.41;;;20.56;22.22
61113;BME280;47184;57.998;56.184;2023-05-19T05:52:52;100916.84;;;20.75;22.11
61113;BME280;47184;57.998;56.184;2023-05-19T05:55:19;100903.00;;;20.91;21.64
61113;BME280;47184;57.998;56.184;2023-05-19T05:57:46;100910.59;;;21.54;21.30
61113;BME280;47184;57.998;56.184;2023-05-19T06:00:14;100890.66;;;21.82;20.71
61113;BME280;47184;57.998;56.184;2023-05-19T06:02:45;100918.56;;;21.87;20.19
61113;BME280;47184;57.998;56.184;2023-05-19T06:05:13;100909.16;;;22.10;20.11
61113;BME280;47184;57.998;56.184;2023-05-19T06:07:40;100915.31;;;22.62;19.71
61113;BME280;47184;57.998;56.184;2023-05-19T06:10:08;100919.63;;;23.44;18.82
61113;BME280;47184;57.998;56.184;2023-05-19T06:12:35;100904.91;;;24.74;18.55
61113;BME280;47184;57.998;56.184;2023-05-19T06:15:06;100898.66;;;25.91;17.54
61113;BME280;47184;57.998;56.184;2023-05-19T06:17:51;100900.16;;;27.40;16.32
61113;BME280;47184;57.998;56.184;2023-05-19T06:20:18;100911.09;;;28.65;15.74
61113;BME280;47184;57.998;56.184;2023-05-19T06:22:44;100895.19;;;29.58;14.90
61113;BME280;47184;57.998;56.184;2023-05-19T06:25:11;100894.69;;;29.19;14.37
61113;BME280;47184;57.998;56.184;2023-05-19T06:27:38;100893.78;;;29.08;14.30
61113;BME280;47184;57.998;56.184;2023-05-19T06:30:05;100902.06;;;29.24;14.28
61113;BME280;47184;57.998;56.184;2023-05-19T06:32:39;100883.28;;;29.75;13.73
61113;BME280;47184;57.998;56.184;2023-05-19T06:35:06;100890.56;;;30.63;13.30
61113;BME280;47184;57.998;56.184;2023-05-19T06:37:33;100889.41;;;31.40;13.31
61113;BME280;47184;57.998;56.184;2023-05-19T06:39:59;100895.72;;;32.79;12.35
61113;BME280;47184;57.998;56.184;2023-05-19T06:42:25;100902.69;;;31.62;12.81
61113;BME280;47184;57.998;56.184;2023-05-19T06:45:09;100893.25;;;31.14;13.02
61113;BME280;47184;57.998;56.184;2023-05-19T06:47:37;100871.84;;;31.62;12.50
61113;BME280;47184;57.998;56.184;2023-05-19T06:50:05;100894.47;;;33.24;11.72
61113;BME280;47184;57.998;56.184;2023-05-19T06:52:34;100881.56;;;34.67;11.23
61113;BME280;47184;57.998;56.184;2023-05-19T06:55:01;100878.00;;;35.27;10.89
61113;BME280;47184;57.998;56.184;2023-05-19T06:57:31;100882.78;;;35.21;10.93
61113;BME280;47184;57.998;56.184;2023-05-19T06:59:57;100865.81;;;35.06;10.98
61113;BME280;47184;57.998;56.184;2023-05-19T07:02:24;100871.97;;;34.32;10.97
61113;BME280;47184;57.998;56.184;2023-05-19T07:04:50;100875.69;;;34.22;10.54
61113;BME280;47184;57.998;56.184;2023-05-19T07:07:20;100841.63;;;35.08;10.36
61113;BME280;47184;57.998;56.184;2023-05-19T07:09:46;100880.88;;;36.13;9.40
61113;BME280;47184;57.998;56.184;2023-05-19T07:12:16;100879.38;;;36.97;9.75
61113;BME280;47184;57.998;56.184;2023-05-19T07:14:42;100885.31;;;37.30;9.30
61113;BME280;47184;57.998;56.184;2023-05-19T07:17:09;100880.44;;;37.27;9.31
61113;BME280;47184;57.998;56.184;2023-05-19T07:19:38;100861.47;;;37.74;8.40
61113;BME280;47184;57.998;56.184;2023-05-19T07:22:05;100889.25;;;37.38;8.54
61113;BME280;47184;57.998;56.184;2023-05-19T07:24:31;100869.75;;;35.27;8.92
61113;BME280;47184;57.998;56.184;2023-05-19T07:26:57;100866.66;;;34.22;9.25
61113;BME280;47184;57.998;56.184;2023-05-19T07:29:23;100851.81;;;34.42;9.14
61113;BME280;47184;57.998;56.184;2023-05-19T07:31:49;100863.06;;;34.40;9.31
61113;BME280;47184;57.998;56.184;2023-05-19T07:34:19;100846.06;;;34.06;9.33
61113;BME280;47184;57.998;56.184;2023-05-19T07:36:46;100860.97;;;33.57;10.02
61113;BME280;47184;57.998;56.184;2023-05-19T07:39:12;100839.97;;;34.28;9.74
61113;BME280;47184;57.998;56.184;2023-05-19T07:41:39;100851.69;;;35.40;9.07
61113;BME280;47184;57.998;56.184;2023-05-19T07:44:05;100866.56;;;36.03;9.18
61113;BME280;47184;57.998;56.184;2023-05-19T07:46:35;100845.06;;;36.50;8.54
61113;BME280;47184;57.998;56.184;2023-05-19T07:49:02;100851.88;;;36.07;9.10
61113;BME280;47184;57.998;56.184;2023-05-19T07:51:28;100851.72;;;34.80;9.33
61113;BME280;47184;57.998;56.184;2023-05-19T07:53:56;100855.72;;;33.79;9.54
61113;BME280;47184;57.998;56.184;2023-05-19T07:56:22;100827.59;;;32.77;9.76
61113;BME280;47184;57.998;56.184;2023-05-19T07:58:49;100830.94;;;32.74;10.47
61113;BME280;47184;57.998;56.184;2023-05-19T08:01:16;100836.91;;;33.06;9.93
61113;BME280;47184;57.998;56.184;2023-05-19T08:03:42;100853.81;;;32.84;10.03
61113;BME280;47184;57.998;56.184;2023-05-19T08:06:08;100803.69;;;32.30;10.13
61113;BME280;47184;57.998;56.184;2023-05-19T08:08:34;100828.28;;;33.41;9.74
61113;BME280;47184;57.998;56.184;2023-05-19T08:11:02;100848.22;;;35.20;9.24
61113;BME280;47184;57.998;56.184;2023-05-19T08:13:29;100837.53;;;35.05;8.95
61113;BME280;47184;57.998;56.184;2023-05-19T08:15:55;100800.56;;;34.56;9.20
61113;BME280;47184;57.998;56.184;2023-05-19T08:18:27;100838.47;;;35.28;9.45
61113;BME280;47184;57.998;56.184;2023-05-19T08:20:53;100833.41;;;36.75;8.34
61113;BME280;47184;57.998;56.184;2023-05-19T08:23:19;100826.91;;;38.37;8.34
61113;BME280;47184;57.998;56.184;2023-05-19T08:25:46;100837.50;;;38.91;7.82
61113;BME280;47184;57.998;56.184;2023-05-19T08:28:12;100807.19;;;39.62;7.47
61113;BME280;47184;57.998;56.184;2023-05-19T08:30:38;100811.84;;;40.13;7.49
61113;BME280;47184;57.998;56.184;2023-05-19T08:33:04;100836.59;;;39.88;7.69
61113;BME280;47184;57.998;56.184;2023-05-19T08:35:30;100825.72;;;39.03;7.74
61113;BME280;47184;57.998;56.184;2023-05-19T08:37:56;100827.81;;;39.44;7.87
61113;BME280;47184;57.998;56.184;2023-05-19T08:40:22;100817.75;;;39.10;7.81
61113;BME280;47184;57.998;56.184;2023-05-19T08:42:53;100823.34;;;38.28;7.84
61113;BME280;47184;57.998;56.184;2023-05-19T08:45:19;100829.03;;;37.71;8.37
61113;BME280;47184;57.998;56.184;2023-05-19T08:47:45;100827.06;;;37.54;8.32
61113;BME280;47184;57.998;56.184;2023-05-19T08:50:16;100826.59;;;38.30;8.06
61113;BME280;47184;57.998;56.184;2023-05-19T08:58:03;100814.22;;;41.05;7.22
61113;BME280;47184;57.998;56.184;2023-05-19T09:00:29;100821.16;;;39.87;7.17
61113;BME280;47184;57.998;56.184;2023-05-19T09:02:56;100818.31;;;37.78;8.12
61113;BME280;47184;57.998;56.184;2023-05-19T09:05:22;100821.47;;;35.90;8.25
61113;BME280;47184;57.998;56.184;2023-05-19T09:07:49;100825.19;;;34.10;8.98
61113;BME280;47184;57.998;56.184;2023-05-19T09:10:14;100801.41;;;32.71;9.60
61113;BME280;47184;57.998;56.184;2023-05-19T09:12:45;100808.81;;;32.42;9.62
61113;BME280;47184;57.998;56.184;2023-05-19T09:15:15;100815.63;;;32.05;9.48
61113;BME280;47184;57.998;56.184;2023-05-19T09:17:44;100818.69;;;32.67;9.96
61113;BME280;47184;57.998;56.184;2023-05-19T09:20:13;100822.34;;;33.77;9.52
61113;BME280;47184;57.998;56.184;2023-05-19T09:22:42;100793.47;;;34.36;9.32
61113;BME280;47184;57.998;56.184;2023-05-19T09:25:22;100805.84;;;34.99;9.41
61113;BME280;47184;57.998;56.184;2023-05-19T09:27:49;100793.38;;;35.57;8.79
61113;BME280;47184;57.998;56.184;2023-05-19T09:30:16;100805.25;;;36.02;8.79
61113;BME280;47184;57.998;56.184;2023-05-19T09:32:43;100815.09;;;35.03;9.17
61113;BME280;47184;57.998;56.184;2023-05-19T09:35:10;100790.50;;;33.19;9.82
61113;BME280;47184;57.998;56.184;2023-05-19T09:37:40;100824.78;;;32.59;10.02
61113;BME280;47184;57.998;56.184;2023-05-19T09:40:07;100822.25;;;31.34;10.58
61113;BME280;47184;57.998;56.184;2023-05-19T09:42:37;100800.47;;;29.66;11.65
61113;BME280;47184;57.998;56.184;2023-05-19T09:45:05;100816.94;;;29.28;12.14
61113;BME280;47184;57.998;56.184;2023-05-19T09:47:36;100822.06;;;29.20;12.12
61113;BME280;47184;57.998;56.184;2023-05-19T09:50:07;100818.28;;;28.83;12.21
61113;BME280;47184;57.998;56.184;2023-05-19T09:52:38;100808.09;;;28.04;12.38
61113;BME280;47184;57.998;56.184;2023-05-19T09:55:10;100807.16;;;27.06;13.32
61113;BME280;47184;57.998;56.184;2023-05-19T09:57:38;100769.78;;;26.35;13.48
61113;BME280;47184;57.998;56.184;2023-05-19T10:00:09;100807.00;;;26.11;13.90
61113;BME280;47184;57.998;56.184;2023-05-19T10:02:45;100802.16;;;25.97;13.89
61113;BME280;47184;57.998;56.184;2023-05-19T10:05:16;100794.16;;;26.18;13.65
61113;BME280;47184;57.998;56.184;2023-05-19T10:07:48;100799.16;;;26.27;13.38
61113;BME280;47184;57.998;56.184;2023-05-19T10:10:16;100800.41;;;26.70;13.25
61113;BME280;47184;57.998;56.184;2023-05-19T10:12:45;100799.25;;;26.82;13.66
61113;BME280;47184;57.998;56.184;2023-05-19T10:15:13;100796.81;;;26.64;13.72
61113;BME280;47184;57.998;56.184;2023-05-19T10:17:41;100796.72;;;26.25;13.70
61113;BME280;47184;57.998;56.184;2023-05-19T10:20:09;100798.09;;;26.28;13.85
61113;BME280;47184;57.998;56.184;2023-05-19T10:22:36;100795.63;;;26.43;13.85
61113;BME280;47184;57.998;56.184;2023-05-19T10:25:04;100768.22;;;26.23;13.77
61113;BME280;47184;57.998;56.184;2023-05-19T10:27:33;100791.72;;;25.48;14.04
61113;BME280;47184;57.998;56.184;2023-05-19T10:30:05;100792.88;;;25.12;14.43
61113;BME280;47184;57.998;56.184;2023-05-19T10:32:32;100815.75;;;24.86;14.72
61113;BME280;47184;57.998;56.184;2023-05-19T10:38:11;100803.22;;;25.15;14.43
61113;BME280;47184;57.998;56.184;2023-05-19T10:46:13;100815.47;;;28.36;13.15
61113;BME280;47184;57.998;56.184;2023-05-19T10:48:43;100804.84;;;29.09;12.75
61113;BME280;47184;57.998;56.184;2023-05-19T10:51:09;100800.59;;;30.17;12.22
61113;BME280;47184;57.998;56.184;2023-05-19T10:53:40;100793.06;;;31.40;11.32
61113;BME280;47184;57.998;56.184;2023-05-19T10:56:30;100787.44;;;32.73;11.04
61113;BME280;47184;57.998;56.184;2023-05-19T10:58:59;100773.06;;;33.34;10.44
61113;BME280;47184;57.998;56.184;2023-05-19T11:01:32;100763.53;;;33.32;10.40
61113;BME280;47184;57.998;56.184;2023-05-19T11:04:09;100793.81;;;33.59;10.45
61113;BME280;47184;57.998;56.184;2023-05-19T11:06:37;100789.00;;;33.51;10.24
61113;BME280;47184;57.998;56.184;2023-05-19T11:14:20;100792.69;;;33.41;10.05
61113;BME280;47184;57.998;56.184;2023-05-19T11:16:49;100776.41;;;32.83;10.55
61113;BME280;47184;57.998;56.184;2023-05-19T11:19:29;100781.63;;;32.16;10.53
61113;BME280;47184;57.998;56.184;2023-05-19T11:22:06;100764.56;;;31.56;10.71
61113;BME280;47184;57.998;56.184;2023-05-19T11:24:45;100768.34;;;31.65;10.51
61113;BME280;47184;57.998;56.184;2023-05-19T11:27:26;100774.06;;;32.37;10.70
61113;BME280;47184;57.998;56.184;2023-05-19T11:29:54;100742.50;;;32.26;10.35
61113;BME280;47184;57.998;56.184;2023-05-19T11:32:26;100752.88;;;32.24;10.65
61113;BME280;47184;57.998;56.184;2023-05-19T11:34:54;100771.53;;;33.47;9.68
61113;BME280;47184;57.998;56.184;2023-05-19T11:37:20;100765.59;;;34.15;9.64
61113;BME280;47184;57.998;56.184;2023-05-19T11:39:46;100775.97;;;32.71;9.69
61113;BME280;47184;57.998;56.184;2023-05-19T11:42:13;100768.25;;;31.21;10.23
61113;BME280;47184;57.998;56.184;2023-05-19T11:44:39;100725.69;;;30.19;10.74
61113;BME280;47184;57.998;56.184;2023-05-19T11:47:14;100752.50;;;29.54;11.17
61113;BME280;47184;57.998;56.184;2023-05-19T11:49:46;100761.19;;;29.41;11.22
61113;BME280;47184;57.998;56.184;2023-05-19T11:52:13;100757.59;;;29.25;11.77
61113;BME280;47184;57.998;56.184;2023-05-19T11:54:40;100756.41;;;29.06;11.79
61113;BME280;47184;57.998;56.184;2023-05-19T11:57:09;100747.28;;;29.32;11.57
61113;BME280;47184;57.998;56.184;2023-05-19T11:59:37;100743.34;;;29.91;11.44
61113;BME280;47184;57.998;56.184;2023-05-19T12:04:42;100746.16;;;32.11;10.25
61113;BME280;47184;57.998;56.184;2023-05-19T12:07:10;100752.41;;;33.42;9.99
61113;BME280;47184;57.998;56.184;2023-05-19T12:09:37;100735.44;;;33.45;9.69
61113;BME280;47184;57.998;56.184;2023-05-19T12:12:03;100752.00;;;33.11;10.08
61113;BME280;47184;57.998;56.184;2023-05-19T12:14:30;100740.81;;;34.07;10.02
61113;BME280;47184;57.998;56.184;2023-05-19T12:16:56;100741.75;;;34.62;9.27
61113;BME280;47184;57.998;56.184;2023-05-19T12:19:23;100742.06;;;34.28;9.65
61113;BME280;47184;57.998;56.184;2023-05-19T12:21:53;100718.66;;;35.18;9.44
61113;BME280;47184;57.998;56.184;2023-05-19T12:24:20;100717.94;;;36.08;8.46
61113;BME280;47184;57.998;56.184;2023-05-19T12:26:46;100745.19;;;36.89;8.54
61113;BME280;47184;57.998;56.184;2023-05-19T12:29:14;100738.06;;;37.54;8.26
61113;BME280;47184;57.998;56.184;2023-05-19T12:31:40;100714.88;;;37.89;8.07
61113;BME280;47184;57.998;56.184;2023-05-19T12:34:07;100732.97;;;38.34;7.95
61113;BME280;47184;57.998;56.184;2023-05-19T12:36:36;100729.06;;;37.05;7.96
61113;BME280;47184;57.998;56.184;2023-05-19T12:39:04;100727.81;;;36.40;8.11
61113;BME280;47184;57.998;56.184;2023-05-19T12:41:30;100735.22;;;36.62;8.12
61113;BME280;47184;57.998;56.184;2023-05-19T12:43:56;100732.47;;;37.19;7.62
61113;BME280;47184;57.998;56.184;2023-05-19T12:46:22;100725.75;;;37.68;7.17
61113;BME280;47184;57.998;56.184;2023-05-19T12:48:48;100731.25;;;37.60;7.13
61113;BME280;47184;57.998;56.184;2023-05-19T12:51:16;100723.59;;;37.31;7.25
61113;BME280;47184;57.998;56.184;2023-05-19T12:53:43;100726.84;;;37.15;7.56
61113;BME280;47184;57.998;56.184;2023-05-19T12:56:11;100731.03;;;37.13;7.33
61113;BME280;47184;57.998;56.184;2023-05-19T12:58:39;100723.16;;;36.80;7.50
61113;BME280;47184;57.998;56.184;2023-05-19T13:01:06;100715.00;;;36.27;7.89
61113;BME280;47184;57.998;56.184;2023-05-19T13:03:39;100710.56;;;35.72;8.32
61113;BME280;47184;57.998;56.184;2023-05-19T13:06:08;100715.50;;;34.97;8.53
61113;BME280;47184;57.998;56.184;2023-05-19T13:08:36;100727.13;;;34.67;8.59
61113;BME280;47184;57.998;56.184;2023-05-19T13:11:05;100731.97;;;34.97;8.46
61113;BME280;47184;57.998;56.184;2023-05-19T13:13:31;100738.78;;;35.14;8.39
61113;BME280;47184;57.998;56.184;2023-05-19T13:15:58;100738.97;;;35.31;8.16
61113;BME280;47184;57.998;56.184;2023-05-19T13:18:24;100723.97;;;35.51;8.02
61113;BME280;47184;57.998;56.184;2023-05-19T13:20:52;100734.84;;;34.92;8.37
61113;BME280;47184;57.998;56.184;2023-05-19T13:23:19;100722.59;;;34.30;8.41